createdAt,value
2022-10-02T00:01:54.682Z,1.30
2022-10-02T00:04:32.441Z,1.50
2022-10-02T00:07:06.970Z,1.30
2022-10-02T00:09:50.004Z,1.43
2022-10-02T00:12:21.800Z,1.40
2022-10-02T00:14:53.282Z,1.20
2022-10-02T00:17:30.231Z,1.30
2022-10-02T00:19:57.579Z,1.40
2022-10-02T00:22:50.138Z,1.20
2022-10-02T00:25:35.351Z,1.37
2022-10-02T00:28:32.041Z,1.30
2022-10-02T00:31:05.870Z,1.20
2022-10-02T00:33:59.046Z,1.07
2022-10-02T00:36:39.537Z,1.30
2022-10-02T00:39:31.517Z,1.30
2022-10-02T00:42:14.896Z,1.30
2022-10-02T00:45:01.099Z,1.30
2022-10-02T00:48:00.749Z,1.20
2022-10-02T00:50:41.348Z,1.30
2022-10-02T00:53:37.734Z,1.10
2022-10-02T00:56:22.148Z,1.20
2022-10-02T00:59:05.816Z,1.10
2022-10-02T01:01:44.767Z,1.10
2022-10-02T01:04:25.210Z,0.90
2022-10-02T01:06:55.935Z,1.00
2022-10-02T01:09:25.317Z,1.10
2022-10-02T01:11:54.130Z,1.07
2022-10-02T01:14:23.193Z,0.80
2022-10-02T01:16:51.740Z,0.90
2022-10-02T01:19:37.437Z,0.90
2022-10-02T01:22:29.662Z,0.80
2022-10-02T01:24:58.211Z,0.90
2022-10-02T01:27:26.622Z,0.80
2022-10-02T01:30:07.547Z,0.80
2022-10-02T01:32:40.871Z,0.90
2022-10-02T01:35:09.111Z,1.00
2022-10-02T01:37:40.960Z,0.90
2022-10-02T01:40:22.267Z,0.90
2022-10-02T01:42:50.823Z,0.70
2022-10-02T01:45:27.653Z,0.83
2022-10-02T01:48:05.528Z,0.70
2022-10-02T01:50:47.966Z,0.90
2022-10-02T01:53:26.261Z,0.90
2022-10-02T01:56:15.890Z,0.80
2022-10-02T01:59:21.672Z,0.80
2022-10-02T02:02:13.483Z,0.70
2022-10-02T02:04:46.732Z,0.70
2022-10-02T02:07:56.570Z,0.97
2022-10-02T02:10:33.430Z,0.80
2022-10-02T02:13:20.254Z,0.70
2022-10-02T02:16:07.475Z,0.80
2022-10-02T02:18:43.352Z,0.67
2022-10-02T02:21:26.560Z,0.70
2022-10-02T02:23:59.313Z,0.70
2022-10-02T02:26:28.840Z,0.70
2022-10-02T02:29:01.198Z,0.87
2022-10-02T02:31:39.846Z,0.80
2022-10-02T02:34:13.931Z,0.77
2022-10-02T02:36:44.737Z,0.70
2022-10-02T02:39:16.806Z,0.60
2022-10-02T02:41:53.242Z,0.60
2022-10-02T02:44:47.557Z,0.50
2022-10-02T02:47:28.511Z,0.80
2022-10-02T02:50:02.030Z,0.70
2022-10-02T02:52:45.547Z,0.70
2022-10-02T02:55:15.927Z,0.73
2022-10-02T02:57:46.377Z,0.67
2022-10-02T03:00:16.510Z,0.70
2022-10-02T03:02:45.086Z,0.60
2022-10-02T03:05:19.031Z,0.73
2022-10-02T03:07:55.193Z,0.70
2022-10-02T03:10:28.354Z,0.63
2022-10-02T03:13:07.632Z,0.80
2022-10-02T03:16:24.627Z,0.67
2022-10-02T03:18:55.241Z,0.70
2022-10-02T03:21:50.415Z,0.70
2022-10-02T03:24:29.791Z,0.73
2022-10-02T03:27:11.274Z,0.80
2022-10-02T03:29:45.458Z,0.80
2022-10-02T03:32:15.288Z,0.60
2022-10-02T03:34:43.206Z,0.67
2022-10-02T03:37:10.694Z,0.80
2022-10-02T03:39:44.294Z,0.50
2022-10-02T03:42:14.164Z,0.77
2022-10-02T03:44:42.236Z,0.70
2022-10-02T03:47:09.615Z,0.77
2022-10-02T03:49:37.037Z,0.80
2022-10-02T03:52:04.397Z,0.70
2022-10-02T03:54:38.341Z,0.80
2022-10-02T03:57:08.361Z,0.80
2022-10-02T03:59:55.831Z,0.57
2022-10-02T04:02:40.515Z,0.70
2022-10-02T04:05:14.267Z,0.70
2022-10-02T04:07:49.003Z,0.93
2022-10-02T04:10:27.218Z,0.80
2022-10-02T04:13:04.432Z,0.77
2022-10-02T04:16:13.108Z,0.83
2022-10-02T04:18:40.579Z,0.80
2022-10-02T04:21:36.898Z,0.80
2022-10-02T04:24:36.790Z,1.10
2022-10-02T04:27:38.651Z,0.80
2022-10-02T04:30:11.053Z,0.70
2022-10-02T04:32:38.423Z,0.60
2022-10-02T04:35:39.710Z,0.60
2022-10-02T04:38:37.879Z,0.70
2022-10-02T04:41:29.752Z,0.90
2022-10-02T04:44:04.745Z,0.90
2022-10-02T04:46:46.887Z,0.70
2022-10-02T04:49:19.365Z,0.87
2022-10-02T04:51:47.455Z,0.90
2022-10-02T04:54:30.684Z,1.10
2022-10-02T04:57:36.870Z,1.07
2022-10-02T05:00:11.527Z,1.13
2022-10-02T05:03:16.064Z,1.00
2022-10-02T05:05:55.507Z,0.90
2022-10-02T05:08:37.907Z,1.00
2022-10-02T05:11:42.056Z,1.00
2022-10-02T05:14:28.886Z,0.87
2022-10-02T05:17:14.239Z,0.90
2022-10-02T05:20:17.886Z,0.90
2022-10-02T05:22:50.177Z,0.90
2022-10-02T05:25:24.284Z,1.20
2022-10-02T05:28:10.081Z,0.93
2022-10-02T05:31:20.709Z,1.00
2022-10-02T05:33:53.881Z,1.00
2022-10-02T05:37:06.714Z,0.90
2022-10-02T05:39:42.136Z,1.00
2022-10-02T05:42:42.988Z,1.00
2022-10-02T05:45:28.322Z,1.00
2022-10-02T05:48:30.579Z,1.00
2022-10-02T05:51:12.638Z,1.20
2022-10-02T05:53:53.307Z,1.50
2022-10-02T05:56:27.200Z,1.30
2022-10-02T05:59:00.817Z,1.00
2022-10-02T06:01:41.750Z,1.40
2022-10-02T06:04:23.295Z,1.00
2022-10-02T06:07:01.357Z,1.20
2022-10-02T06:09:36.302Z,1.20
2022-10-02T06:12:09.574Z,1.43
2022-10-02T06:15:05.365Z,1.40
2022-10-02T06:17:47.861Z,1.33
2022-10-02T06:20:25.752Z,1.30
2022-10-02T06:23:03.818Z,1.03
2022-10-02T06:25:38.070Z,1.23
2022-10-02T06:28:21.321Z,1.20
2022-10-02T06:30:55.420Z,1.00
2022-10-02T06:33:26.274Z,1.10
2022-10-02T06:35:53.809Z,1.20
2022-10-02T06:38:30.114Z,1.10
2022-10-02T06:41:24.155Z,1.20
2022-10-02T06:43:58.623Z,1.30
2022-10-02T06:46:36.412Z,1.03
2022-10-02T06:49:32.283Z,1.10
2022-10-02T06:52:20.164Z,1.30
2022-10-02T06:54:57.387Z,1.20
2022-10-02T06:57:40.528Z,1.27
2022-10-02T07:00:12.532Z,1.33
2022-10-02T07:03:06.733Z,1.20
2022-10-02T07:06:10.006Z,1.43
2022-10-02T07:08:46.429Z,1.83
2022-10-02T07:11:21.209Z,1.40
2022-10-02T07:14:08.401Z,1.50
2022-10-02T07:17:10.877Z,1.20
2022-10-02T07:19:52.558Z,1.67
2022-10-02T07:22:45.668Z,1.40
2022-10-02T07:25:38.196Z,1.47
2022-10-02T07:28:20.144Z,1.67
2022-10-02T07:31:06.304Z,1.50
2022-10-02T07:34:01.686Z,1.50
2022-10-02T07:36:45.846Z,1.43
2022-10-02T07:39:26.352Z,1.50
2022-10-02T07:42:05.342Z,1.80
2022-10-02T07:44:52.292Z,1.90
2022-10-02T07:47:19.655Z,1.60
2022-10-02T07:49:49.994Z,1.17
2022-10-02T07:52:37.558Z,1.23
2022-10-02T07:55:20.960Z,1.43
2022-10-02T07:58:07.124Z,1.53
2022-10-02T08:01:02.326Z,1.30
2022-10-02T08:03:43.255Z,1.70
2022-10-02T08:06:12.407Z,1.40
2022-10-02T08:08:51.384Z,1.50
2022-10-02T08:11:49.122Z,1.50
2022-10-02T08:14:23.284Z,1.60
2022-10-02T08:16:59.981Z,1.83
2022-10-02T08:19:35.662Z,1.50
2022-10-02T08:22:29.379Z,2.00
2022-10-02T08:25:08.676Z,1.70
2022-10-02T08:28:15.451Z,1.70
2022-10-02T08:30:42.849Z,1.70
2022-10-02T08:33:22.770Z,1.77
2022-10-02T08:36:14.093Z,1.50
2022-10-02T08:38:55.022Z,1.53
2022-10-02T08:41:34.469Z,1.60
2022-10-02T08:44:22.140Z,1.50
2022-10-02T08:47:23.586Z,1.40
2022-10-02T08:50:19.990Z,1.57
2022-10-02T08:53:03.375Z,1.63
2022-10-02T08:55:39.732Z,1.43
2022-10-02T08:58:13.148Z,1.43
2022-10-02T09:01:10.858Z,1.50
2022-10-02T09:03:45.867Z,1.60
2022-10-02T09:06:26.160Z,1.27
2022-10-02T09:08:56.208Z,1.40
2022-10-02T09:11:45.549Z,1.40
2022-10-02T09:14:22.487Z,1.13
2022-10-02T09:17:10.380Z,1.43
2022-10-02T09:20:24.755Z,1.30
2022-10-02T09:23:10.621Z,1.40
2022-10-02T09:25:56.966Z,1.40
2022-10-02T09:28:33.032Z,1.13
2022-10-02T09:31:58.906Z,1.40
2022-10-02T09:34:58.406Z,1.10
2022-10-02T09:37:59.362Z,1.70
2022-10-02T09:40:53.194Z,1.50
2022-10-02T09:44:02.105Z,1.20
2022-10-02T09:46:59.858Z,1.50
2022-10-02T09:50:04.734Z,1.40
2022-10-02T09:52:50.905Z,1.37
2022-10-02T09:55:42.970Z,1.30
2022-10-02T09:58:38.145Z,1.43
2022-10-02T10:01:49.886Z,1.50
2022-10-02T10:05:05.590Z,1.40
2022-10-02T10:07:57.572Z,1.50
2022-10-02T10:10:53.387Z,1.30
2022-10-02T10:13:56.093Z,1.27
2022-10-02T10:17:05.778Z,1.40
2022-10-02T10:20:04.333Z,1.60
2022-10-02T10:23:07.293Z,1.70
2022-10-02T10:26:15.177Z,1.70
2022-10-02T10:29:00.859Z,1.50
2022-10-02T10:32:06.130Z,1.40
2022-10-02T10:34:46.335Z,1.60
2022-10-02T10:37:52.651Z,1.10
2022-10-02T10:40:36.140Z,1.50
2022-10-02T10:43:16.874Z,1.37
2022-10-02T10:46:15.599Z,1.30
2022-10-02T10:49:05.469Z,1.27
2022-10-02T10:51:45.922Z,1.60
2022-10-02T10:54:32.207Z,19.70
2022-10-02T10:57:12.500Z,8.17
2022-10-02T10:59:50.382Z,2.80
2022-10-02T11:02:26.800Z,3.23
2022-10-02T11:05:03.461Z,3.23
2022-10-02T11:08:21.163Z,9.40
2022-10-02T11:11:08.779Z,5.60
2022-10-02T11:14:02.723Z,2.87
2022-10-02T11:16:58.010Z,3.23
2022-10-02T11:19:28.322Z,4.07
2022-10-02T11:22:40.003Z,5.80
2022-10-02T11:25:41.245Z,2.83
2022-10-02T11:28:22.204Z,2.17
2022-10-02T11:31:10.680Z,2.67
2022-10-02T11:33:40.907Z,2.23
2022-10-02T11:36:42.865Z,1.70
2022-10-02T11:39:30.148Z,2.87
2022-10-02T11:42:23.557Z,1.77
2022-10-02T11:44:57.069Z,1.60
2022-10-02T11:47:57.714Z,2.20
2022-10-02T11:51:10.277Z,4.10
2022-10-02T11:54:10.795Z,1.73
2022-10-02T11:57:06.075Z,1.70
2022-10-02T12:02:45.612Z,1.40
2022-10-02T12:05:59.090Z,1.60
2022-10-02T12:08:58.176Z,2.30
2022-10-02T12:11:35.195Z,1.30
2022-10-02T12:14:10.043Z,1.40
2022-10-02T12:16:48.743Z,1.67
2022-10-02T12:19:38.928Z,1.50
2022-10-02T12:22:53.881Z,1.67
2022-10-02T12:26:02.107Z,1.33
2022-10-02T12:29:00.799Z,1.40
2022-10-02T12:31:51.223Z,2.87
2022-10-02T12:34:34.282Z,2.47
2022-10-02T12:37:19.420Z,3.27
2022-10-02T12:40:00.910Z,2.67
2022-10-02T12:42:53.921Z,2.80
2022-10-02T12:45:50.575Z,2.07
2022-10-02T12:48:57.674Z,2.10
2022-10-02T12:51:54.977Z,1.80
2022-10-02T12:54:59.645Z,1.60
2022-10-02T12:57:59.125Z,1.70
2022-10-02T13:01:08.298Z,1.87
2022-10-02T13:04:00.018Z,2.00
2022-10-02T13:06:58.440Z,2.10
2022-10-02T13:10:16.242Z,1.80
2022-10-02T13:13:21.054Z,2.03
2022-10-02T13:16:37.753Z,2.30
2022-10-02T13:19:56.515Z,1.90
2022-10-02T13:22:54.595Z,2.67
2022-10-02T13:26:02.762Z,5.07
2022-10-02T13:29:22.879Z,5.80
2022-10-02T13:32:24.626Z,3.17
2022-10-02T13:35:29.542Z,2.30
2022-10-02T13:38:34.573Z,2.80
2022-10-02T13:41:32.532Z,2.30
2022-10-02T13:44:22.226Z,2.70
2022-10-02T13:47:11.612Z,2.30
2022-10-02T13:50:17.344Z,2.87
2022-10-02T13:52:51.774Z,2.20
2022-10-02T13:55:37.267Z,1.60
2022-10-02T13:58:30.087Z,1.30
2022-10-02T14:01:19.198Z,1.97
2022-10-02T14:04:27.326Z,2.90
2022-10-02T14:07:29.022Z,2.50
2022-10-02T14:10:41.433Z,1.97
2022-10-02T14:13:19.755Z,8.60
2022-10-02T14:16:14.686Z,10.20
2022-10-02T14:19:05.385Z,4.20
2022-10-02T14:22:10.961Z,2.30
2022-10-02T14:25:25.186Z,2.50
2022-10-02T14:28:29.043Z,2.87
2022-10-02T14:31:27.478Z,4.47
2022-10-02T14:34:35.113Z,4.03
2022-10-02T14:37:51.772Z,3.90
2022-10-02T14:40:20.507Z,3.50
2022-10-02T14:43:11.922Z,5.20
2022-10-02T14:46:05.141Z,5.47
2022-10-02T14:49:32.945Z,3.40
2022-10-02T14:52:30.529Z,2.47
2022-10-02T14:55:28.339Z,2.33
2022-10-02T14:58:17.503Z,2.03
2022-10-02T15:01:16.091Z,2.70
2022-10-02T15:03:57.371Z,2.50
2022-10-02T15:07:04.447Z,2.53
2022-10-02T15:10:21.746Z,2.43
2022-10-02T15:13:03.574Z,2.70
2022-10-02T15:16:21.314Z,2.50
2022-10-02T15:19:11.466Z,2.90
2022-10-02T15:22:19.733Z,3.30
2022-10-02T15:24:55.979Z,3.00
2022-10-02T15:27:27.177Z,2.53
2022-10-02T15:30:20.581Z,1.93
2022-10-02T15:33:11.281Z,1.83
2022-10-02T15:36:12.939Z,1.97
2022-10-02T15:39:02.518Z,2.53
2022-10-02T15:42:11.474Z,2.77
2022-10-02T15:45:10.029Z,2.60
2022-10-02T15:48:24.190Z,2.80
2022-10-02T15:51:26.453Z,3.90
2022-10-02T15:54:31.559Z,3.07
2022-10-02T15:57:21.767Z,2.60
2022-10-02T16:00:06.704Z,2.67
2022-10-02T16:03:00.610Z,4.50
2022-10-02T16:06:21.615Z,5.03
2022-10-02T16:09:29.603Z,5.63
2022-10-02T16:12:29.640Z,4.30
2022-10-02T16:15:34.618Z,4.00
2022-10-02T16:18:37.806Z,3.40
2022-10-02T16:21:52.746Z,3.33
2022-10-02T16:24:37.521Z,2.57
2022-10-02T16:27:23.443Z,3.63
2022-10-02T16:30:17.839Z,4.20
2022-10-02T16:33:20.268Z,4.20
2022-10-02T16:35:55.004Z,4.20
2022-10-02T16:38:51.461Z,3.10
2022-10-02T16:42:01.948Z,4.60
2022-10-02T16:45:35.064Z,4.83
2022-10-02T16:48:34.681Z,4.10
2022-10-02T16:51:50.209Z,3.50
2022-10-02T16:54:26.947Z,3.20
2022-10-02T16:57:34.227Z,2.60
2022-10-02T17:00:11.094Z,3.10
2022-10-02T17:03:06.480Z,3.20
2022-10-02T17:05:59.206Z,3.53
2022-10-02T17:08:48.306Z,3.47
2022-10-02T17:12:02.459Z,4.20
2022-10-02T17:14:52.352Z,3.90
2022-10-02T17:17:45.383Z,3.80
2022-10-02T17:20:26.407Z,3.73
2022-10-02T17:23:10.448Z,3.60
2022-10-02T17:26:24.726Z,3.50
2022-10-02T17:29:04.738Z,3.83
2022-10-02T17:31:46.992Z,3.80
2022-10-02T17:34:36.705Z,2.80
2022-10-02T17:40:19.807Z,2.40
2022-10-02T17:43:27.277Z,2.90
2022-10-02T17:46:57.306Z,3.57
2022-10-02T17:49:59.662Z,2.90
2022-10-02T17:53:25.028Z,2.83
2022-10-02T17:56:32.702Z,2.30
2022-10-02T17:59:26.290Z,3.20
2022-10-02T18:02:23.774Z,3.00
2022-10-02T18:05:02.605Z,3.70
2022-10-02T18:08:10.734Z,3.87
2022-10-02T18:10:59.922Z,3.00
2022-10-02T18:13:53.887Z,2.50
2022-10-02T18:16:56.407Z,1.53
2022-10-02T18:19:35.764Z,1.97
2022-10-02T18:22:25.808Z,1.90
2022-10-02T18:25:16.987Z,2.40
2022-10-02T18:28:37.745Z,1.87
2022-10-02T18:31:56.176Z,2.50
2022-10-02T18:34:43.980Z,1.60
2022-10-02T18:37:52.320Z,1.80
2022-10-02T18:40:36.117Z,1.43
2022-10-02T18:43:56.215Z,1.40
2022-10-02T18:46:55.193Z,1.40
2022-10-02T18:50:01.440Z,1.40
2022-10-02T18:53:45.301Z,1.60
2022-10-02T18:56:15.987Z,2.43
2022-10-02T18:59:09.808Z,2.07
2022-10-02T19:02:04.680Z,1.80
2022-10-02T19:05:15.423Z,1.50
2022-10-02T19:08:41.454Z,1.10
2022-10-02T19:11:21.831Z,0.90
2022-10-02T19:13:52.827Z,2.37
2022-10-02T19:16:26.892Z,3.20
2022-10-02T19:19:27.089Z,2.73
2022-10-02T19:22:01.470Z,2.00
2022-10-02T19:24:36.823Z,1.70
2022-10-02T19:27:09.891Z,2.10
2022-10-02T19:30:09.198Z,1.20
2022-10-02T19:32:45.678Z,1.17
2022-10-02T19:35:22.350Z,0.97
2022-10-02T19:37:54.147Z,1.00
2022-10-02T19:40:32.460Z,1.07
2022-10-02T19:43:09.748Z,1.77
2022-10-02T19:45:42.399Z,2.80
2022-10-02T19:48:19.110Z,2.10
2022-10-02T19:50:52.274Z,1.80
2022-10-02T19:53:47.409Z,1.90
2022-10-02T19:56:42.307Z,1.87
2022-10-02T19:59:22.096Z,1.80
2022-10-02T20:01:57.156Z,2.00
2022-10-02T20:04:31.381Z,1.97
2022-10-02T20:10:06.751Z,1.87
2022-10-02T20:12:45.461Z,1.47
2022-10-02T20:16:04.424Z,1.90
2022-10-02T20:18:32.985Z,1.97
2022-10-02T20:21:41.226Z,1.47
2022-10-02T20:24:41.870Z,1.80
2022-10-02T20:27:41.361Z,1.93
2022-10-02T20:30:17.473Z,1.60
2022-10-02T20:33:27.105Z,5.60
2022-10-02T21:37:37.316Z,1.40
2022-10-02T21:40:22.024Z,1.30
2022-10-02T21:43:33.803Z,1.47
2022-10-02T21:46:29.401Z,2.03
2022-10-02T21:49:36.877Z,1.80
2022-10-02T21:52:36.569Z,1.50
2022-10-02T21:55:43.533Z,1.40
2022-10-02T21:58:29.707Z,1.77
2022-10-02T22:01:06.009Z,1.80
2022-10-02T22:03:58.580Z,1.60
2022-10-02T22:06:55.864Z,1.40
2022-10-02T22:10:05.037Z,1.60
2022-10-02T22:12:56.425Z,1.27
2022-10-02T22:15:59.224Z,1.50
2022-10-02T22:18:51.133Z,1.50
2022-10-02T22:22:13.973Z,1.40
2022-10-02T22:25:23.507Z,1.40
2022-10-02T22:28:28.506Z,1.53
2022-10-02T22:31:06.350Z,1.30
2022-10-02T22:34:00.273Z,1.43
2022-10-02T22:36:53.571Z,1.60
2022-10-02T22:39:59.840Z,2.10
2022-10-02T22:42:45.623Z,1.80
2022-10-02T22:45:44.488Z,2.20
2022-10-02T22:48:30.202Z,1.80
2022-10-02T22:51:44.666Z,1.70
2022-10-02T22:54:33.599Z,1.80
2022-10-02T22:57:30.978Z,1.53
2022-10-02T23:00:20.842Z,1.70
2022-10-02T23:03:06.288Z,1.60
2022-10-02T23:05:50.527Z,1.50
2022-10-02T23:08:34.382Z,1.53
2022-10-02T23:11:14.803Z,1.63
2022-10-02T23:14:05.968Z,1.50
2022-10-02T23:16:49.247Z,1.50
2022-10-02T23:19:47.398Z,1.47
2022-10-02T23:22:39.005Z,1.50
2022-10-02T23:25:32.448Z,1.70
2022-10-02T23:28:11.371Z,1.50
2022-10-02T23:30:50.822Z,1.40
2022-10-02T23:34:14.316Z,1.50
2022-10-02T23:37:00.327Z,1.53
2022-10-02T23:39:47.233Z,1.33
2022-10-02T23:42:24.516Z,1.53
2022-10-02T23:45:14.053Z,1.60
2022-10-02T23:48:13.890Z,1.70
2022-10-02T23:51:19.990Z,1.40
2022-10-02T23:54:36.891Z,1.87
2022-10-02T23:57:26.239Z,1.63
